PWSweather.com
Personal Weather Stations
Station Observations
RHPWSHOR1
Lostock, BoltonGB

LostockBoltonGB

Lat: 53.58073044, Lon: -2.52344131

Elevation: 389

Station Type: Oregon Scientific WMR100

Latest ConditionsUpdated 4:33:12 AM GMT Wednesday, Jul 8, 2015
Currently Today's Max Today's Min Today's Average
Temperature 55.0°F12.8°C 56.1°F13.4°C 55.0°F12.8°C 55.5°F13.1°C
Dew Point 50.0°F10.0°C 50.2°F10.1°C 41.6°F5.3°C 46.6°F8.1°C
Winds 2.9 mph WSW4.7 kmh WSW 6.0 mph WSW9.7 kmh WSW - 2.0 mph 3.2 kmh
Wind Gusts 2.9 mph4.7 kmh 6.0 mph9.7 kmh - -
Humidity 83% 83% 58% 72%
Pressure 29.09 in985.1 mb 29.09 in985.1 mb 29.06 in984.1 mb -
Hour Temp Dew Point Humidity Winds Wind Gusts Pressure Precip Precip Rate Daily Precip Total
04:33 AM 55.0°F12.8°C 50.0°F10.0°C 83% 2.9 mph WSW4.7 kmh WSW 2.9 mph4.7 kmh 29.09 in985.1 mb 0.00 in0.0 mm 0.00 in0.0 mm 0.00 in0.0 mm
04:26 AM 55.0°F12.8°C 50.0°F10.0°C 83% 6.0 mph WSW9.7 kmh WSW 6.0 mph9.7 kmh 29.09 in985.1 mb 0.00 in0.0 mm 0.00 in0.0 mm 0.00 in0.0 mm
04:19 AM 55.0°F12.8°C 50.0°F10.0°C 83% 3.1 mph SSW5.0 kmh SSW 3.1 mph5.0 kmh 29.09 in985.1 mb 0.00 in0.0 mm 0.00 in0.0 mm 0.00 in0.0 mm
04:12 AM 55.0°F12.8°C 50.0°F10.0°C 83% 1.6 mph SSW2.6 kmh SSW 2.2 mph3.5 kmh 29.09 in985.1 mb 0.00 in0.0 mm 0.00 in0.0 mm 0.00 in0.0 mm
04:05 AM 55.0°F12.8°C 50.0°F10.0°C 83% 2.5 mph SSW4.0 kmh SSW 3.1 mph5.0 kmh 29.09 in985.1 mb 0.00 in0.0 mm 0.00 in0.0 mm 0.00 in0.0 mm
03:58 AM 55.0°F12.8°C 50.0°F10.0°C 83% 5.6 mph SSW9.0 kmh SSW 5.6 mph9.0 kmh 29.09 in985.1 mb 0.00 in0.0 mm 0.00 in0.0 mm 0.00 in0.0 mm
03:51 AM 55.2°F12.9°C 50.2°F10.1°C 83% 3.8 mph SSE6.1 kmh SSE 4.0 mph6.4 kmh 29.09 in985.1 mb 0.00 in0.0 mm 0.00 in0.0 mm 0.00 in0.0 mm
03:43 AM 55.4°F13.0°C 50.0°F10.0°C 82% 3.8 mph WSW6.1 kmh WSW 4.3 mph6.9 kmh 29.09 in985.1 mb 0.00 in0.0 mm 0.00 in0.0 mm 0.00 in0.0 mm
03:37 AM 55.4°F13.0°C 49.7°F9.8°C 81% 2.5 mph W4.0 kmh W 2.5 mph4.0 kmh 29.09 in985.1 mb 0.00 in0.0 mm 0.00 in0.0 mm 0.00 in0.0 mm
03:30 AM 55.4°F13.0°C 49.7°F9.8°C 81% 1.3 mph WSW2.1 kmh WSW 1.3 mph2.1 kmh 29.09 in985.1 mb 0.00 in0.0 mm 0.00 in0.0 mm 0.00 in0.0 mm
03:23 AM 55.4°F13.0°C 49.3°F9.6°C 80% 2.0 mph SSE3.2 kmh SSE 3.1 mph5.0 kmh 29.09 in985.1 mb 0.00 in0.0 mm 0.00 in0.0 mm 0.00 in0.0 mm
03:16 AM 55.4°F13.0°C 49.3°F9.6°C 80% 2.2 mph W3.5 kmh W 2.5 mph4.0 kmh 29.09 in985.1 mb 0.00 in0.0 mm 0.00 in0.0 mm 0.00 in0.0 mm
03:09 AM 55.4°F13.0°C 49.3°F9.6°C 80% 1.6 mph WSW2.6 kmh WSW 1.6 mph2.6 kmh 29.09 in985.1 mb 0.00 in0.0 mm 0.00 in0.0 mm 0.00 in0.0 mm
03:02 AM 55.4°F13.0°C 49.3°F9.6°C 80% 2.0 mph WNW3.2 kmh WNW 3.1 mph5.0 kmh 29.09 in985.1 mb 0.00 in0.0 mm 0.00 in0.0 mm 0.00 in0.0 mm
02:55 AM 55.6°F13.1°C 49.5°F9.7°C 80% 2.5 mph WNW4.0 kmh WNW 2.5 mph4.0 kmh 29.09 in985.1 mb 0.00 in0.0 mm 0.00 in0.0 mm 0.00 in0.0 mm
02:48 AM 55.6°F13.1°C 49.9°F9.9°C 81% 4.7 mph WNW7.6 kmh WNW 4.7 mph7.6 kmh 29.06 in984.1 mb 0.00 in0.0 mm 0.00 in0.0 mm 0.00 in0.0 mm
02:41 AM 55.6°F13.1°C 49.5°F9.7°C 80% 3.1 mph SSW5.0 kmh SSW 3.1 mph5.0 kmh 29.06 in984.1 mb 0.00 in0.0 mm 0.00 in0.0 mm 0.00 in0.0 mm
02:34 AM 55.6°F13.1°C 49.2°F9.6°C 79% 2.5 mph WSW4.0 kmh WSW 3.8 mph6.1 kmh 29.06 in984.1 mb 0.00 in0.0 mm 0.00 in0.0 mm 0.00 in0.0 mm
02:27 AM 55.6°F13.1°C 48.5°F9.2°C 77% 2.7 mph SSW4.3 kmh SSW 3.1 mph5.0 kmh 29.06 in984.1 mb 0.00 in0.0 mm 0.00 in0.0 mm 0.00 in0.0 mm
02:20 AM 55.6°F13.1°C 47.8°F8.8°C 75% 2.5 mph SSW4.0 kmh SSW 2.5 mph4.0 kmh 29.06 in984.1 mb 0.00 in0.0 mm 0.00 in0.0 mm 0.00 in0.0 mm
02:13 AM 55.4°F13.0°C 46.9°F8.3°C 73% 3.1 mph S5.0 kmh S 3.6 mph5.8 kmh 29.06 in984.1 mb 0.00 in0.0 mm 0.00 in0.0 mm 0.00 in0.0 mm
02:06 AM 55.4°F13.0°C 46.5°F8.1°C 72% 1.1 mph SSW1.8 kmh SSW 2.9 mph4.7 kmh 29.09 in985.1 mb 0.00 in0.0 mm 0.00 in0.0 mm 0.00 in0.0 mm
01:59 AM 55.4°F13.0°C 45.8°F7.7°C 70% 2.5 mph SSE4.0 kmh SSE 2.7 mph4.3 kmh 29.09 in985.1 mb 0.00 in0.0 mm 0.00 in0.0 mm 0.00 in0.0 mm
01:52 AM 55.4°F13.0°C 45.0°F7.2°C 68% 1.1 mph SSW1.8 kmh SSW 2.0 mph3.2 kmh 29.06 in984.1 mb 0.00 in0.0 mm 0.00 in0.0 mm 0.00 in0.0 mm
01:45 AM 55.4°F13.0°C 44.6°F7.0°C 67% 1.6 mph WSW2.6 kmh WSW 2.2 mph3.5 kmh 29.06 in984.1 mb 0.00 in0.0 mm 0.00 in0.0 mm 0.00 in0.0 mm
01:38 AM 55.4°F13.0°C 44.6°F7.0°C 67% Calm Calm -- 29.06 in984.1 mb 0.00 in0.0 mm 0.00 in0.0 mm 0.00 in0.0 mm
01:31 AM 55.4°F13.0°C 44.2°F6.8°C 66% 1.1 mph WNW1.8 kmh WNW 1.1 mph1.8 kmh 29.06 in984.1 mb 0.00 in0.0 mm 0.00 in0.0 mm 0.00 in0.0 mm
01:24 AM 55.4°F13.0°C 43.9°F6.6°C 65% 0.9 mph SW1.4 kmh SW 1.6 mph2.6 kmh 29.06 in984.1 mb 0.00 in0.0 mm 0.00 in0.0 mm 0.00 in0.0 mm
01:17 AM 55.4°F13.0°C 43.4°F6.3°C 64% 1.6 mph SSW2.6 kmh SSW 2.0 mph3.2 kmh 29.06 in984.1 mb 0.00 in0.0 mm 0.00 in0.0 mm 0.00 in0.0 mm
01:10 AM 55.6°F13.1°C 43.2°F6.2°C 63% 1.1 mph NNE1.8 kmh NNE 1.6 mph2.6 kmh 29.06 in984.1 mb 0.00 in0.0 mm 0.00 in0.0 mm 0.00 in0.0 mm
01:03 AM 55.6°F13.1°C 43.2°F6.2°C 63% Calm Calm 0.9 mph1.4 kmh 29.06 in984.1 mb 0.00 in0.0 mm 0.00 in0.0 mm 0.00 in0.0 mm
12:56 AM 55.6°F13.1°C 42.8°F6.0°C 62% Calm Calm -- 29.06 in984.1 mb 0.00 in0.0 mm 0.00 in0.0 mm 0.00 in0.0 mm
12:49 AM 55.6°F13.1°C 42.8°F6.0°C 62% Calm Calm -- 29.06 in984.1 mb 0.00 in0.0 mm 0.00 in0.0 mm 0.00 in0.0 mm
12:42 AM 55.8°F13.2°C 43.0°F6.1°C 62% Calm Calm -- 29.06 in984.1 mb 0.00 in0.0 mm 0.00 in0.0 mm 0.00 in0.0 mm
12:35 AM 55.8°F13.2°C 42.5°F5.8°C 61% 2.2 mph S3.5 kmh S 2.2 mph3.5 kmh 29.06 in984.1 mb 0.00 in0.0 mm 0.00 in0.0 mm 0.00 in0.0 mm
12:28 AM 55.8°F13.2°C 42.1°F5.6°C 60% Calm Calm -- 29.06 in984.1 mb 0.00 in0.0 mm 0.00 in0.0 mm 0.00 in0.0 mm
12:21 AM 55.8°F13.2°C 42.1°F5.6°C 60% 1.3 mph SSW2.1 kmh SSW 1.3 mph2.1 kmh 29.06 in984.1 mb 0.00 in0.0 mm 0.00 in0.0 mm 0.00 in0.0 mm
12:14 AM 55.9°F13.3°C 41.8°F5.4°C 59% Calm Calm -- 29.06 in984.1 mb 0.00 in0.0 mm 0.00 in0.0 mm 0.00 in0.0 mm
12:07 AM 55.9°F13.3°C 41.8°F5.4°C 59% 1.6 mph S2.6 kmh S 2.2 mph3.5 kmh 29.09 in985.1 mb 0.00 in0.0 mm 0.00 in0.0 mm 0.00 in0.0 mm
12:00 AM 56.1°F13.4°C 41.6°F5.3°C 58% 1.6 mph SSW2.6 kmh SSW 1.6 mph2.6 kmh 29.09 in985.1 mb 0.00 in0.0 mm 0.00 in0.0 mm 0.00 in0.0 mm